Estación de Rapel
Ultimos registro cada 15 minutos 67
| N° | Estación | Fecha / Hora | Temperatura | Humedad | Lluvia | Velocidad | Dirección | Radiación | Presion |
| 67 | Rapel | 04-09-2026 17:00 | 19,6 | 33 | 0 | 2,7 | 233 | 262 | 1020,5 |
| 66 | Rapel | 04-09-2026 16:45 | 19,7 | 34 | 0 | 4,5 | 167 | 315 | 1020,7 |
| 65 | Rapel | 04-09-2026 16:30 | 20,1 | 34 | 0 | 4,5 | 241 | 364 | 1020,5 |
| 64 | Rapel | 04-09-2026 16:15 | 20,3 | 33 | 0 | 3,6 | 218 | 410 | 1020,6 |
| 63 | Rapel | 04-09-2026 16:00 | 20,1 | 33 | 0 | 2,2 | 215 | 452 | 1020,6 |
| 62 | Rapel | 04-09-2026 15:45 | 20,1 | 34 | 0 | 2,7 | 218 | 496 | 1020,5 |
| 61 | Rapel | 04-09-2026 15:30 | 20,1 | 36 | 0 | 1,8 | 203 | 534 | 1020,5 |
| 60 | Rapel | 04-09-2026 15:15 | 20,1 | 38 | 0 | 2,7 | 225 | 564 | 1020,5 |
| 59 | Rapel | 04-09-2026 15:00 | 19,9 | 38 | 0 | 4 | 227 | 603 | 1020,6 |
| 58 | Rapel | 04-09-2026 14:45 | 20,1 | 39 | 0 | 4 | 206 | 633 | 1020,5 |
| 57 | Rapel | 04-09-2026 14:30 | 20,1 | 41 | 0 | 2,2 | 208 | 652 | 1020,6 |
| 56 | Rapel | 04-09-2026 14:15 | 19,8 | 45 | 0 | 1,3 | 228 | 671 | 1020,8 |
| 55 | Rapel | 04-09-2026 14:00 | 19,6 | 47 | 0 | 2,2 | 200 | 693 | 1021 |
| 54 | Rapel | 04-09-2026 13:45 | 19,3 | 48 | 0 | 2,7 | 232 | 707 | 1021,2 |
| 53 | Rapel | 04-09-2026 13:30 | 19,1 | 51 | 0 | 4 | 179 | 722 | 1021,6 |
| 52 | Rapel | 04-09-2026 13:15 | 19,2 | 48 | 0 | 4,5 | 189 | 731 | 1021,6 |
| 51 | Rapel | 04-09-2026 13:00 | 19 | 48 | 0 | 1,8 | 269 | 738 | 1021,8 |
| 50 | Rapel | 04-09-2026 12:45 | 18,8 | 48 | 0 | 3,6 | 165 | 735 | 1022,1 |
| 49 | Rapel | 04-09-2026 12:30 | 18,2 | 54 | 0 | 1,3 | 233 | 731 | 1022,4 |
| 48 | Rapel | 04-09-2026 12:15 | 17,6 | 52 | 0 | 2,7 | 206 | 726 | 1022,7 |
| 47 | Rapel | 04-09-2026 12:00 | 17,2 | 54 | 0 | 0 | 280 | 715 | 1022,9 |
| 46 | Rapel | 04-09-2026 11:45 | 16,9 | 59 | 0 | 1,3 | 137 | 703 | 1023,1 |
| 45 | Rapel | 04-09-2026 11:30 | 16,2 | 68 | 0 | 1,3 | 341 | 682 | 1023,2 |
| 44 | Rapel | 04-09-2026 11:15 | 15,3 | 66 | 0 | 0,4 | 295 | 659 | 1023,6 |
| 43 | Rapel | 04-09-2026 11:00 | 14,6 | 71 | 0 | 0,4 | 16 | 631 | 1023,7 |
| 42 | Rapel | 04-09-2026 10:45 | 14,3 | 71 | 0 | 1,3 | 58 | 603 | 1023,7 |
| 41 | Rapel | 04-09-2026 10:30 | 13,6 | 73 | 0 | 0,9 | 306 | 568 | 1023,8 |
| 40 | Rapel | 04-09-2026 10:15 | 12,8 | 77 | 0 | 0,9 | 357 | 536 | 1023,7 |
| 39 | Rapel | 04-09-2026 10:00 | 12,3 | 75 | 0 | 0,4 | 327 | 497 | 1024,1 |
| 38 | Rapel | 04-09-2026 09:45 | 11,9 | 75 | 0 | 0 | 193 | 457 | 1024,1 |
| 37 | Rapel | 04-09-2026 09:30 | 11,6 | 78 | 0 | 0,9 | 348 | 418 | 1024,1 |
| 36 | Rapel | 04-09-2026 09:15 | 11,1 | 80 | 0 | 0 | 56 | 367 | 1024,2 |
| 35 | Rapel | 04-09-2026 09:00 | 10,1 | 82 | 0 | 0 | 91 | 308 | 1024,4 |
| 34 | Rapel | 04-09-2026 08:45 | 9,1 | 85 | 0 | 0 | 103 | 258 | 1024,1 |
| 33 | Rapel | 04-09-2026 08:30 | 7,9 | 87 | 0 | 0 | 94 | 218 | 1024,1 |
| 32 | Rapel | 04-09-2026 08:15 | 7 | 89 | 0 | 0 | 139 | 134 | 1024,5 |
| 31 | Rapel | 04-09-2026 08:00 | 5,8 | 95 | 0 | 0 | 193 | 118 | 1024,5 |
| 30 | Rapel | 04-09-2026 07:45 | 4,4 | 94 | 0 | 0 | 225 | 54 | 1024,3 |
| 29 | Rapel | 04-09-2026 07:30 | 3,4 | 94 | 0 | 0 | 225 | 25 | 1024,6 |
| 28 | Rapel | 04-09-2026 07:15 | 2,7 | 93 | 0 | 0 | 123 | 11 | 1024,7 |
| 27 | Rapel | 04-09-2026 07:00 | 2,8 | 93 | 0 | 0 | 124 | 0 | 1024,3 |
| 26 | Rapel | 04-09-2026 06:45 | 2,8 | 93 | 0 | 0 | 273 | 0 | 1024,2 |
| 25 | Rapel | 04-09-2026 06:30 | 2,9 | 93 | 0 | 0 | 227 | 0 | 1024,3 |
| 24 | Rapel | 04-09-2026 06:15 | 2,9 | 92 | 0 | 0 | 184 | 0 | 1024,3 |
| 23 | Rapel | 04-09-2026 06:00 | 3,3 | 92 | 0 | 0 | 184 | 0 | 1024,2 |
| 22 | Rapel | 04-09-2026 05:45 | 3,5 | 92 | 0 | 0 | 184 | 0 | 1024 |
| 21 | Rapel | 04-09-2026 05:30 | 3,8 | 92 | 0 | 0 | 184 | 0 | 1024,1 |
| 20 | Rapel | 04-09-2026 05:15 | 4,2 | 93 | 0 | 0 | 193 | 0 | 1024,1 |
| 19 | Rapel | 04-09-2026 05:00 | 4,2 | 93 | 0 | 0 | 193 | 0 | 1024,2 |
| 18 | Rapel | 04-09-2026 04:45 | 3,9 | 91 | 0 | 0 | 189 | 0 | 1024,1 |
| 17 | Rapel | 04-09-2026 04:30 | 4,3 | 92 | 0 | 0 | 189 | 0 | 1023,9 |
| 16 | Rapel | 04-09-2026 04:15 | 4,4 | 92 | 0 | 0 | 189 | 0 | 1023,9 |
| 15 | Rapel | 04-09-2026 04:00 | 4,6 | 91 | 0 | 0 | 189 | 0 | 1023,8 |
| 14 | Rapel | 04-09-2026 03:45 | 5,1 | 92 | 0 | 0 | 242 | 0 | 1024 |
| 13 | Rapel | 04-09-2026 03:30 | 4,9 | 92 | 0 | 0 | 246 | 0 | 1023,8 |
| 12 | Rapel | 04-09-2026 03:15 | 4,9 | 93 | 0 | 0 | 170 | 0 | 1024 |
| 11 | Rapel | 04-09-2026 03:00 | 4,8 | 92 | 0 | 0 | 163 | 0 | 1024 |
| 10 | Rapel | 04-09-2026 02:15 | 5,2 | 91 | 0 | 0 | 201 | 0 | 1024,5 |
| 9 | Rapel | 04-09-2026 02:00 | 5,4 | 91 | 0 | 0 | 201 | 0 | 1024,5 |
| 8 | Rapel | 04-09-2026 01:45 | 5,6 | 91 | 0 | 0 | 201 | 0 | 1024,4 |
| 7 | Rapel | 04-09-2026 01:30 | 5,7 | 90 | 0 | 0 | 189 | 0 | 1024,4 |
| 6 | Rapel | 04-09-2026 01:15 | 6,4 | 88 | 0 | 0 | 218 | 0 | 1024,5 |
| 5 | Rapel | 04-09-2026 01:00 | 6,7 | 86 | 0 | 0,4 | 224 | 0 | 1024,4 |
| 4 | Rapel | 04-09-2026 00:45 | 7,2 | 87 | 0 | 0 | 220 | 0 | 1024,3 |
| 3 | Rapel | 04-09-2026 00:30 | 7,5 | 86 | 0 | 0 | 189 | 0 | 1024,5 |
| 2 | Rapel | 04-09-2026 00:15 | 7,9 | 84 | 0 | 0 | 189 | 0 | 1024,6 |
| 1 | Rapel | 04-09-2026 00:00 | 8,2 | 84 | 0 | 0 | 189 | 0 | 1024,7 |